Time;durP1;ratioP1;P1;durP2;ratioP2;P2;SDS_P1;SDS_P2;PMS_P1;PMS_P2;Temp;Humidity;BMP_temperature;BMP_pressure;BME280_temperature;BME280_humidity;BME280_pressure;Samples;Min_cycle;Max_cycle;Signal;HPM_P1;HPM_P2
2023/07/23 00:01:55;;;;;;;6.40;3.27;;;;;;;19.10;85.42;99681.72;5031800;28;20225;-69
2023/07/23 00:04:20;;;;;;;6.43;3.53;;;;;;;18.93;86.60;99675.53;5046332;28;20280;-68
2023/07/23 00:06:45;;;;;;;7.90;3.60;;;;;;;18.79;87.36;99681.22;5047312;28;20636;-67
2023/07/23 00:09:11;;;;;;;5.77;3.50;;;;;;;18.69;88.41;99678.66;5036769;28;20560;-66
2023/07/23 00:11:36;;;;;;;4.50;3.37;;;;;;;18.64;88.57;99673.94;5036649;28;20229;-69
2023/07/23 00:14:01;;;;;;;7.53;3.53;;;;;;;18.55;89.30;99678.19;5047073;28;20247;-70
2023/07/23 00:16:26;;;;;;;7.23;3.10;;;;;;;18.46;89.67;99673.06;5052036;28;20181;-70
2023/07/23 00:18:52;;;;;;;3.97;3.57;;;;;;;18.39;90.21;99673.66;5048386;28;20217;-70
2023/07/23 00:21:17;;;;;;;6.77;3.80;;;;;;;18.44;90.25;99681.00;5050190;28;20794;-70
2023/07/23 00:23:42;;;;;;;5.13;3.73;;;;;;;18.31;91.16;99673.53;5057995;28;20178;-70
2023/07/23 00:26:07;;;;;;;4.77;3.77;;;;;;;18.25;91.11;99676.72;5038468;28;20185;-70
2023/07/23 00:28:33;;;;;;;6.97;3.87;;;;;;;18.34;90.55;99673.25;5048616;28;20197;-70
2023/07/23 00:30:58;;;;;;;4.57;3.70;;;;;;;18.23;91.05;99676.03;5042383;28;20235;-69
2023/07/23 00:33:24;;;;;;;4.83;3.93;;;;;;;18.26;91.49;99673.16;5060266;28;20546;-70
2023/07/23 00:35:49;;;;;;;10.40;3.90;;;;;;;18.18;92.60;99668.69;5051454;28;20189;-71
2023/07/23 00:38:15;;;;;;;5.03;4.07;;;;;;;18.14;92.96;99663.91;5050174;28;20193;-70
2023/07/23 00:40:40;;;;;;;7.13;3.70;;;;;;;18.08;93.16;99660.06;5037748;28;20324;-71
2023/07/23 00:43:06;;;;;;;6.67;4.00;;;;;;;17.97;93.07;99658.47;5062134;28;20209;-70
2023/07/23 00:45:32;;;;;;;5.37;4.27;;;;;;;17.85;93.94;99667.38;5042536;28;20684;-70
2023/07/23 00:47:59;;;;;;;3.70;3.40;;;;;;;17.77;94.71;99659.47;5049125;28;20196;-70
2023/07/23 00:50:25;;;;;;;7.17;3.50;;;;;;;17.63;95.02;99660.75;5033302;28;20281;-70
2023/07/23 00:52:50;;;;;;;5.13;3.73;;;;;;;17.59;96.19;99663.59;5057867;28;20173;-70
2023/07/23 00:55:16;;;;;;;6.30;3.73;;;;;;;17.52;95.84;99659.09;5051156;28;20184;-70
2023/07/23 00:57:41;;;;;;;5.33;3.90;;;;;;;17.53;97.06;99658.97;5051599;28;20260;-70
2023/07/23 01:00:10;;;;;;;6.10;3.87;;;;;;;17.41;98.00;99655.72;5036460;28;20240;-70
2023/07/23 01:02:36;;;;;;;8.33;3.73;;;;;;;17.39;97.96;99657.63;5060226;28;20542;-70
2023/07/23 01:05:02;;;;;;;5.23;4.00;;;;;;;17.45;98.87;99655.41;5050481;28;20177;-69
2023/07/23 01:07:30;;;;;;;4.53;3.50;;;;;;;17.26;99.21;99647.50;5049963;28;20181;-70
2023/07/23 01:09:55;;;;;;;6.63;3.50;;;;;;;17.10;100.00;99650.66;5042914;28;20189;-70
2023/07/23 01:12:21;;;;;;;6.23;3.30;;;;;;;16.91;100.00;99643.69;5022334;28;20229;-70
2023/07/23 01:14:46;;;;;;;6.00;3.83;;;;;;;16.96;100.00;99639.88;5051067;28;20228;-70
2023/07/23 01:17:14;;;;;;;7.10;3.90;;;;;;;16.87;100.00;99642.28;5051339;28;20207;-70
2023/07/23 01:19:40;;;;;;;5.63;3.63;;;;;;;16.87;100.00;99644.88;5050104;28;20283;-69
2023/07/23 01:22:05;;;;;;;6.10;3.80;;;;;;;16.87;100.00;99633.66;5058436;28;20324;-70
2023/07/23 01:24:31;;;;;;;4.53;4.10;;;;;;;16.84;100.00;99634.75;5038238;28;20188;-69
2023/07/23 01:26:56;;;;;;;4.50;3.63;;;;;;;16.73;100.00;99637.47;5049302;28;20189;-70
2023/07/23 01:29:21;;;;;;;8.43;3.80;;;;;;;16.74;100.00;99631.31;5057706;28;20949;-69
2023/07/23 01:31:47;;;;;;;5.47;3.87;;;;;;;16.62;100.00;99633.22;5039709;28;20302;-69
2023/07/23 01:34:12;;;;;;;5.13;4.10;;;;;;;16.64;100.00;99631.31;5053938;28;20284;-70
2023/07/23 01:36:39;;;;;;;6.07;4.07;;;;;;;16.53;100.00;99631.44;5058091;28;20667;-70
2023/07/23 01:39:04;;;;;;;6.80;4.10;;;;;;;16.57;100.00;99623.25;5057525;28;20262;-70
2023/07/23 01:41:30;;;;;;;5.90;4.30;;;;;;;16.47;100.00;99622.38;5045926;28;20660;-70
2023/07/23 01:43:55;;;;;;;9.23;3.67;;;;;;;16.48;100.00;99623.22;5047313;28;20750;-70
2023/07/23 01:46:20;;;;;;;6.90;4.20;;;;;;;16.36;100.00;99617.31;5050662;28;20235;-70
2023/07/23 01:48:46;;;;;;;5.87;4.00;;;;;;;16.33;100.00;99620.19;5050108;28;20180;-69
2023/07/23 01:51:11;;;;;;;4.80;3.63;;;;;;;16.17;100.00;99621.50;5050426;28;20225;-69
2023/07/23 01:53:37;;;;;;;6.20;3.93;;;;;;;16.18;100.00;99619.75;5057859;28;20244;-69
2023/07/23 01:56:02;;;;;;;4.80;4.00;;;;;;;16.09;100.00;99616.97;5037820;28;20189;-70
2023/07/23 01:58:27;;;;;;;5.43;4.37;;;;;;;16.05;100.00;99610.41;5054353;28;20287;-70
2023/07/23 02:00:58;;;;;;;4.80;3.77;;;;;;;15.93;100.00;99609.66;5040571;28;20220;-69
2023/07/23 02:03:23;;;;;;;13.07;4.23;;;;;;;15.97;100.00;99618.81;5055027;28;20189;-70
2023/07/23 02:06:00;;;;;;;6.43;3.80;;;;;;;15.79;100.00;99604.81;5055019;28;20185;-70
2023/07/23 02:08:25;;;;;;;5.03;4.03;;;;;;;15.85;100.00;99606.09;5043794;28;20778;-69
2023/07/23 02:10:57;;;;;;;11.80;4.10;;;;;;;15.71;100.00;99600.25;5040129;28;20320;-70
2023/07/23 02:13:22;;;;;;;5.07;3.77;;;;;;;15.67;100.00;99608.44;5054004;28;20217;-71
2023/07/23 02:15:47;;;;;;;10.40;4.60;;;;;;;15.60;100.00;99603.78;5054678;28;20558;-70
2023/07/23 02:18:14;;;;;;;14.00;4.07;;;;;;;15.57;100.00;99601.41;5057423;28;20200;-70
2023/07/23 02:20:41;;;;;;;11.80;4.03;;;;;;;15.57;100.00;99601.41;5048802;28;20228;-70
2023/07/23 02:23:06;;;;;;;4.43;3.73;;;;;;;15.58;100.00;99599.63;5065759;28;20217;-69
2023/07/23 02:25:36;;;;;;;7.13;3.93;;;;;;;15.57;100.00;99596.22;5046449;28;20223;-69
2023/07/23 02:28:01;;;;;;;4.60;4.17;;;;;;;15.45;100.00;99603.25;5056932;28;20232;-69
2023/07/23 02:30:27;;;;;;;6.80;4.20;;;;;;;15.54;100.00;99609.47;5048179;28;20228;-70
2023/07/23 02:32:52;;;;;;;6.90;4.20;;;;;;;15.40;100.00;99604.59;5066287;28;20174;-68
2023/07/23 02:35:17;;;;;;;4.17;3.77;;;;;;;15.38;100.00;99606.47;5051030;28;20280;-69
2023/07/23 02:37:42;;;;;;;4.90;3.87;;;;;;;15.32;100.00;99606.03;5051461;28;20185;-70
2023/07/23 02:40:08;;;;;;;6.43;4.43;;;;;;;15.33;100.00;99609.44;5044225;28;20228;-70
2023/07/23 02:42:33;;;;;;;7.33;4.20;;;;;;;15.31;100.00;99609.56;5068168;28;20193;-69
2023/07/23 02:44:58;;;;;;;4.63;4.00;;;;;;;15.04;100.00;99612.66;5052131;28;20587;-69
2023/07/23 02:47:24;;;;;;;6.43;4.53;;;;;;;15.12;100.00;99610.28;5046977;28;20193;-69
2023/07/23 02:49:49;;;;;;;5.77;3.63;;;;;;;15.08;100.00;99602.88;5048153;28;20723;-70
2023/07/23 02:52:15;;;;;;;5.23;4.20;;;;;;;15.07;100.00;99607.25;5058131;28;20225;-69
2023/07/23 02:54:42;;;;;;;7.00;3.97;;;;;;;15.03;100.00;99605.03;5053276;28;20226;-69
2023/07/23 02:57:07;;;;;;;4.83;4.37;;;;;;;15.04;100.00;99601.50;5050587;28;20208;-69
2023/07/23 02:59:32;;;;;;;5.63;4.13;;;;;;;14.88;100.00;99601.91;5045870;28;20671;-70
2023/07/23 03:01:57;;;;;;;5.57;3.97;;;;;;;14.97;100.00;99603.75;5047200;28;20235;-70
2023/07/23 03:04:26;;;;;;;4.60;4.10;;;;;;;14.97;100.00;99607.16;5053592;28;20652;-69
2023/07/23 03:06:52;;;;;;;7.70;4.33;;;;;;;14.97;100.00;99599.41;5040268;28;20246;-69
2023/07/23 03:09:17;;;;;;;6.90;3.63;;;;;;;14.95;100.00;99601.28;5048012;28;20243;-69
2023/07/23 03:11:42;;;;;;;4.37;3.97;;;;;;;14.92;100.00;99598.94;5054979;28;20609;-70
2023/07/23 03:14:08;;;;;;;4.30;3.90;;;;;;;14.76;100.00;99594.19;5055812;28;20221;-69
2023/07/23 03:16:33;;;;;;;6.80;4.30;;;;;;;14.78;100.00;99594.06;5053539;28;20224;-69
2023/07/23 03:18:58;;;;;;;4.80;4.30;;;;;;;14.71;100.00;99593.72;5057097;28;20193;-68
2023/07/23 03:21:23;;;;;;;5.37;4.40;;;;;;;14.64;100.00;99598.53;5044417;28;20232;-69
2023/07/23 03:23:49;;;;;;;7.33;3.53;;;;;;;14.57;100.00;99593.97;5044577;28;20251;-69
2023/07/23 03:26:14;;;;;;;4.43;3.67;;;;;;;14.60;100.00;99596.31;5048899;28;20197;-69
2023/07/23 03:28:40;;;;;;;5.33;4.63;;;;;;;14.63;100.00;99596.06;5043496;28;20285;-69
2023/07/23 03:31:05;;;;;;;6.30;4.20;;;;;;;14.65;100.00;99597.63;5030259;27;20683;-69
2023/07/23 03:33:30;;;;;;;9.60;4.83;;;;;;;14.62;100.00;99597.00;5060447;28;20265;-69
2023/07/23 03:35:55;;;;;;;4.23;3.47;;;;;;;14.43;100.00;99595.88;5052487;28;20185;-69
2023/07/23 03:38:20;;;;;;;6.93;4.53;;;;;;;14.46;100.00;99600.00;5051369;28;20189;-69
2023/07/23 03:40:46;;;;;;;4.93;3.90;;;;;;;14.58;100.00;99593.03;5048152;28;20282;-70
2023/07/23 03:43:11;;;;;;;4.03;3.70;;;;;;;14.64;100.00;99595.13;5050984;28;20208;-70
2023/07/23 03:45:36;;;;;;;5.93;4.20;;;;;;;14.51;100.00;99597.84;5051699;28;20177;-69
2023/07/23 03:48:02;;;;;;;6.03;4.27;;;;;;;14.59;100.00;99598.06;5052867;28;20185;-70
2023/07/23 03:50:27;;;;;;;6.63;4.60;;;;;;;14.60;100.00;99599.72;5045334;28;20680;-69
2023/07/23 03:52:53;;;;;;;7.70;4.83;;;;;;;14.60;100.00;99591.97;5064810;28;20239;-69
2023/07/23 03:55:19;;;;;;;4.47;4.07;;;;;;;14.59;100.00;99590.31;5052013;28;20193;-69
2023/07/23 03:57:45;;;;;;;4.50;4.10;;;;;;;14.49;100.00;99589.41;5053091;28;20521;-68
2023/07/23 04:00:11;;;;;;;7.50;4.13;;;;;;;14.58;100.00;99595.63;5042808;28;20202;-69
2023/07/23 04:02:36;;;;;;;5.10;4.23;;;;;;;14.62;100.00;99592.66;5066320;28;20181;-69
2023/07/23 04:05:02;;;;;;;7.23;4.53;;;;;;;14.61;100.00;99603.13;5051874;28;20220;-68
2023/07/23 04:07:27;;;;;;;7.77;4.23;;;;;;;14.55;100.00;99593.25;5052287;28;20174;-68
2023/07/23 04:09:53;;;;;;;6.07;4.40;;;;;;;14.65;100.00;99599.41;5050815;28;20193;-69
2023/07/23 04:12:19;;;;;;;6.27;4.27;;;;;;;14.76;100.00;99593.34;5052221;28;20639;-69
2023/07/23 04:14:44;;;;;;;7.03;4.43;;;;;;;14.76;100.00;99588.16;5047331;28;20230;-69
2023/07/23 04:17:10;;;;;;;6.17;4.30;;;;;;;14.77;100.00;99585.47;5039696;28;20213;-71
2023/07/23 04:19:35;;;;;;;8.37;4.73;;;;;;;14.81;100.00;99592.03;5045057;28;20209;-67
2023/07/23 04:22:01;;;;;;;5.63;4.50;;;;;;;14.92;100.00;99595.53;5045442;28;20259;-70
2023/07/23 04:24:26;;;;;;;4.63;4.13;;;;;;;15.00;100.00;99599.13;5044256;28;20611;-69
2023/07/23 04:26:51;;;;;;;5.47;4.37;;;;;;;15.07;100.00;99589.13;5046874;28;20184;-70
2023/07/23 04:29:16;;;;;;;7.10;4.17;;;;;;;15.04;100.00;99593.72;5039377;28;20189;-70
2023/07/23 04:31:42;;;;;;;4.93;4.23;;;;;;;15.17;100.00;99594.38;5048786;28;20332;-69
2023/07/23 04:34:07;;;;;;;5.47;4.67;;;;;;;15.37;100.00;99597.91;5047438;28;20188;-69
2023/07/23 04:36:32;;;;;;;7.43;4.40;;;;;;;15.41;100.00;99593.28;5051422;28;20256;-69
2023/07/23 04:39:00;;;;;;;14.53;4.20;;;;;;;15.56;100.00;99599.78;5050425;28;20232;-70
2023/07/23 04:41:25;;;;;;;8.33;4.57;;;;;;;15.78;100.00;99600.56;5040098;28;20279;-70
2023/07/23 04:43:51;;;;;;;6.03;4.50;;;;;;;15.80;100.00;99596.06;5050750;28;20202;-70
2023/07/23 04:46:16;;;;;;;5.33;4.13;;;;;;;15.87;100.00;99604.19;5051011;28;20189;-70
2023/07/23 04:48:41;;;;;;;5.70;4.23;;;;;;;15.85;100.00;99601.75;5051574;28;20174;-69
2023/07/23 04:51:09;;;;;;;6.17;4.33;;;;;;;16.09;100.00;99603.19;5044712;28;20277;-70
2023/07/23 04:53:34;;;;;;;5.07;4.57;;;;;;;16.30;100.00;99597.94;5038181;28;20178;-68
2023/07/23 04:56:02;;;;;;;4.40;4.10;;;;;;;16.52;100.00;99601.22;5050436;28;20601;-69
2023/07/23 04:58:28;;;;;;;4.43;4.03;;;;;;;16.72;100.00;99597.72;5049997;28;20197;-68
2023/07/23 05:00:53;;;;;;;6.77;4.50;;;;;;;16.64;100.00;99596.75;5039506;28;20642;-69
2023/07/23 05:03:19;;;;;;;5.77;4.20;;;;;;;16.77;100.00;99594.72;5042680;28;20588;-69
2023/07/23 05:05:47;;;;;;;7.40;4.50;;;;;;;16.91;100.00;99594.31;5050805;28;20463;-69
2023/07/23 05:08:12;;;;;;;5.07;4.57;;;;;;;16.92;100.00;99600.34;5051507;28;20185;-69
2023/07/23 05:10:38;;;;;;;7.30;4.47;;;;;;;16.91;100.00;99599.50;5039436;28;20233;-69
2023/07/23 05:13:04;;;;;;;4.70;4.10;;;;;;;16.92;100.00;99592.56;5047041;28;20249;-69
2023/07/23 05:15:29;;;;;;;5.83;4.60;;;;;;;16.99;100.00;99592.81;5039156;28;20177;-70
2023/07/23 05:17:54;;;;;;;6.23;4.10;;;;;;;17.00;100.00;99594.47;5051703;28;20227;-69
2023/07/23 05:20:20;;;;;;;5.60;4.27;;;;;;;17.01;100.00;99594.31;5042302;28;20213;-70
2023/07/23 05:22:45;;;;;;;5.47;4.37;;;;;;;16.89;100.00;99592.78;5049874;28;20174;-70
2023/07/23 05:25:10;;;;;;;5.90;4.43;;;;;;;17.02;100.00;99600.34;5050785;28;20292;-70
2023/07/23 05:27:36;;;;;;;7.07;4.70;;;;;;;17.14;100.00;99596.66;5049682;28;20185;-70
2023/07/23 05:30:03;;;;;;;5.17;4.40;;;;;;;17.19;100.00;99604.00;5051227;28;20178;-70
2023/07/23 05:32:28;;;;;;;4.20;3.80;;;;;;;17.34;100.00;99597.44;5039961;28;20749;-69
2023/07/23 05:34:53;;;;;;;7.13;4.17;;;;;;;17.56;100.00;99606.69;5044035;28;20268;-70
2023/07/23 05:37:19;;;;;;;6.60;4.37;;;;;;;17.77;100.00;99603.03;5050910;28;20177;-69
2023/07/23 05:39:45;;;;;;;8.57;4.43;;;;;;;18.04;100.00;99596.28;5051226;28;20213;-69
2023/07/23 05:42:10;;;;;;;5.87;4.80;;;;;;;18.05;100.00;99600.50;5055832;28;20231;-70
2023/07/23 05:44:35;;;;;;;7.77;4.33;;;;;;;18.31;100.00;99602.44;5050416;28;20189;-70
2023/07/23 05:47:00;;;;;;;7.00;4.87;;;;;;;18.65;100.00;99592.19;5050827;28;20192;-70
2023/07/23 05:49:26;;;;;;;6.40;4.90;;;;;;;18.74;100.00;99592.28;5051051;28;20235;-70
2023/07/23 05:51:52;;;;;;;4.97;4.47;;;;;;;18.96;100.00;99591.84;5053776;28;20232;-69
2023/07/23 05:54:17;;;;;;;5.23;4.73;;;;;;;19.00;99.49;99590.59;5048961;28;20193;-69
2023/07/23 05:56:43;;;;;;;4.27;3.53;;;;;;;19.14;99.75;99594.44;5051021;28;20246;-69
2023/07/23 05:59:08;;;;;;;5.90;3.93;;;;;;;19.55;97.03;99593.88;5050786;28;20247;-69
2023/07/23 06:01:33;;;;;;;4.63;3.10;;;;;;;20.02;93.85;99597.88;5030212;28;20229;-69
2023/07/23 06:03:59;;;;;;;7.10;3.40;;;;;;;20.44;90.61;99590.97;5040064;28;20185;-69
2023/07/23 06:06:24;;;;;;;4.17;3.30;;;;;;;21.08;89.25;99588.59;5050297;28;20252;-59
2023/07/23 06:08:49;;;;;;;4.33;3.30;;;;;;;21.35;82.99;99588.41;5040906;28;20193;-59
2023/07/23 06:11:15;;;;;;;3.40;3.00;;;;;;;21.45;81.97;99592.47;5053819;28;20403;-58
2023/07/23 06:13:40;;;;;;;7.67;2.87;;;;;;;22.01;78.02;99585.63;5057615;28;20225;-58
2023/07/23 06:16:06;;;;;;;5.33;3.03;;;;;;;22.27;75.40;99587.13;5046093;28;20656;-57
2023/07/23 06:18:35;;;;;;;6.30;3.13;;;;;;;22.02;76.77;99593.28;5051733;28;20205;-58
2023/07/23 06:21:00;;;;;;;5.10;3.30;;;;;;;22.14;76.66;99590.28;5038063;28;20251;-57
2023/07/23 06:23:25;;;;;;;5.37;3.33;;;;;;;21.88;80.29;99594.84;5058976;28;20635;-58
2023/07/23 06:25:57;;;;;;;5.80;3.17;;;;;;;21.27;80.69;99595.28;5054027;28;20640;-58
2023/07/23 06:28:23;;;;;;;3.50;3.20;;;;;;;21.53;83.19;99602.13;5048005;28;20183;-58
2023/07/23 06:30:52;;;;;;;4.27;3.20;;;;;;;21.51;81.09;99598.84;5030303;28;20232;-59
2023/07/23 06:33:18;;;;;;;6.20;2.77;;;;;;;21.38;83.76;99603.75;5038877;28;20344;-56
2023/07/23 06:35:44;;;;;;;3.60;2.80;;;;;;;21.45;82.60;99605.53;5053537;28;20676;-58
2023/07/23 06:38:09;;;;;;;4.23;3.20;;;;;;;21.22;83.85;99613.28;5053523;28;20238;-58
2023/07/23 06:40:34;;;;;;;5.07;3.57;;;;;;;21.44;82.95;99605.72;5042829;28;20258;-60
2023/07/23 06:43:00;;;;;;;3.63;3.33;;;;;;;21.51;82.74;99608.47;5063529;28;20242;-59
2023/07/23 06:45:25;;;;;;;5.50;3.20;;;;;;;21.43;84.79;99599.69;5052996;28;20177;-60
2023/07/23 06:47:50;;;;;;;5.33;2.90;;;;;;;21.46;82.07;99609.00;5043948;28;20174;-59
2023/07/23 06:50:17;;;;;;;7.10;2.70;;;;;;;21.54;84.14;99608.97;5045293;28;20181;-72
2023/07/23 06:52:43;;;;;;;6.10;3.07;;;;;;;21.66;78.38;99606.84;5041694;28;20958;-70
2023/07/23 06:55:08;;;;;;;4.40;3.10;;;;;;;21.63;78.13;99612.41;5034475;28;20212;-71
2023/07/23 06:57:34;;;;;;;6.67;3.33;;;;;;;21.75;77.93;99611.06;5039675;28;20871;-69
2023/07/23 06:59:59;;;;;;;5.40;3.20;;;;;;;21.90;77.38;99605.94;5047602;28;20284;-70
2023/07/23 07:02:24;;;;;;;4.53;2.37;;;;;;;21.54;80.29;99605.53;5034942;28;20592;-70
2023/07/23 07:04:51;;;;;;;4.13;2.50;;;;;;;21.36;81.53;99617.03;5051803;28;20231;-69
2023/07/23 07:07:16;;;;;;;4.27;2.47;;;;;;;21.59;81.19;99609.31;5053223;28;20260;-70
2023/07/23 07:09:41;;;;;;;6.43;2.83;;;;;;;21.47;82.30;99609.81;5053822;28;20264;-70
2023/07/23 07:12:07;;;;;;;3.77;2.70;;;;;;;21.59;82.13;99611.09;5054863;28;20703;-69
2023/07/23 07:14:33;;;;;;;5.47;2.60;;;;;;;21.45;82.24;99609.97;5051134;28;20227;-69
2023/07/23 07:16:58;;;;;;;4.13;2.60;;;;;;;21.70;82.51;99605.50;5053961;28;20743;-68
2023/07/23 07:19:23;;;;;;;4.93;2.40;;;;;;;21.62;82.86;99613.41;5053389;28;20251;-69
2023/07/23 07:21:50;;;;;;;2.97;2.67;;;;;;;21.48;83.23;99611.44;5040800;28;20224;-68
2023/07/23 07:24:15;;;;;;;4.80;2.70;;;;;;;21.62;83.03;99605.56;5054345;28;20185;-69
2023/07/23 07:26:40;;;;;;;2.80;2.60;;;;;;;21.67;83.09;99603.25;5053213;28;20261;-69
2023/07/23 07:29:05;;;;;;;2.60;2.40;;;;;;;21.50;85.55;99609.47;5053176;28;20185;-69
2023/07/23 07:31:31;;;;;;;2.57;2.23;;;;;;;21.21;86.85;99601.19;5029540;28;20737;-69
2023/07/23 07:33:57;;;;;;;7.13;3.23;;;;;;;21.17;85.01;99602.47;5053387;28;20273;-69
2023/07/23 07:36:22;;;;;;;3.03;2.53;;;;;;;21.11;87.51;99600.50;5048024;28;20181;-68
2023/07/23 07:38:48;;;;;;;3.57;2.60;;;;;;;20.90;87.72;99599.22;5052751;28;20565;-69
2023/07/23 07:41:13;;;;;;;6.10;2.60;;;;;;;20.98;87.83;99598.41;5047644;28;20256;-70
2023/07/23 07:43:38;;;;;;;2.70;2.37;;;;;;;20.82;90.04;99599.22;5054721;28;20189;-70
2023/07/23 07:46:05;;;;;;;2.80;2.30;;;;;;;20.93;89.47;99603.31;5052367;28;20522;-69
2023/07/23 07:48:31;;;;;;;5.23;2.30;;;;;;;20.71;91.01;99599.50;5052574;28;20174;-69
2023/07/23 07:51:02;;;;;;;3.67;2.30;;;;;;;20.71;91.44;99600.34;5044336;28;20312;-70
2023/07/23 07:53:28;;;;;;;7.37;2.57;;;;;;;20.71;91.32;99594.28;5044432;28;20201;-69
2023/07/23 07:55:54;;;;;;;2.90;2.30;;;;;;;20.61;92.51;99587.41;5051381;28;20582;-70
2023/07/23 07:58:24;;;;;;;2.63;2.37;;;;;;;20.68;91.65;99587.59;5052415;28;20190;-69
2023/07/23 08:00:52;;;;;;;4.63;2.43;;;;;;;20.61;92.17;99584.78;5047849;28;20628;-70
2023/07/23 08:03:17;;;;;;;4.73;2.23;;;;;;;20.61;91.49;99590.00;5048911;28;20258;-70
2023/07/23 08:05:43;;;;;;;3.03;2.37;;;;;;;20.75;91.49;99590.38;5038298;28;20195;-70
2023/07/23 08:08:10;;;;;;;2.30;2.10;;;;;;;20.72;93.51;99596.75;5051321;28;20181;-69
2023/07/23 08:10:35;;;;;;;3.63;2.10;;;;;;;20.82;91.77;99595.81;5040995;28;20232;-70
2023/07/23 08:13:02;;;;;;;3.70;2.40;;;;;;;20.75;91.91;99599.06;5052647;28;20232;-70
2023/07/23 08:15:29;;;;;;;3.27;2.20;;;;;;;20.82;91.60;99599.22;5051504;28;20221;-70
2023/07/23 08:17:55;;;;;;;2.27;2.07;;;;;;;20.77;90.78;99612.78;5052725;28;20192;-70
2023/07/23 08:20:20;;;;;;;2.07;1.97;;;;;;;20.90;91.96;99614.91;5043890;28;20217;-69
2023/07/23 08:22:46;;;;;;;3.40;2.40;;;;;;;21.08;90.55;99619.16;5062105;28;20182;-69
2023/07/23 08:25:12;;;;;;;4.47;2.30;;;;;;;21.12;89.75;99620.47;5050129;28;20189;-68
2023/07/23 08:27:38;;;;;;;2.17;1.97;;;;;;;21.43;89.02;99620.63;5052126;28;20181;-69
2023/07/23 08:30:05;;;;;;;2.27;2.10;;;;;;;21.72;87.91;99616.66;5044387;28;20288;-69
2023/07/23 08:32:31;;;;;;;2.90;2.17;;;;;;;21.98;86.15;99620.81;5066603;28;20652;-69
2023/07/23 08:34:58;;;;;;;1.83;1.67;;;;;;;21.72;85.55;99619.25;5050116;28;20184;-69
2023/07/23 08:37:23;;;;;;;3.93;1.80;;;;;;;21.82;87.12;99629.53;5051894;28;20275;-69
2023/07/23 08:39:49;;;;;;;3.23;1.90;;;;;;;22.15;84.79;99621.53;5051641;28;20327;-69
2023/07/23 08:42:45;;;;;;;3.10;1.80;;;;;;;22.14;85.25;99600.75;5056827;28;20723;-70
2023/07/23 08:45:28;;;;;;;1.90;1.70;;;;;;;22.11;84.78;99591.44;5037394;28;20577;-69
2023/07/23 08:48:12;;;;;;;2.90;2.10;;;;;;;22.34;84.41;99588.88;5051783;28;20181;-70
2023/07/23 08:50:39;;;;;;;1.73;1.50;;;;;;;22.37;82.03;99578.06;5046084;28;20314;-69
2023/07/23 08:53:06;;;;;;;2.57;1.97;;;;;;;22.64;82.84;99590.84;5052591;28;20174;-69
2023/07/23 08:55:32;;;;;;;3.33;2.00;;;;;;;23.01;81.26;99579.56;5045847;28;20181;-68
2023/07/23 08:57:58;;;;;;;2.33;1.80;;;;;;;23.21;78.24;99589.59;5050243;28;20212;-68
2023/07/23 09:00:27;;;;;;;3.13;1.80;;;;;;;23.54;77.49;99594.47;5043307;28;20260;-69
2023/07/23 09:02:53;;;;;;;2.37;1.83;;;;;;;24.01;73.57;99589.88;5063228;28;20539;-69
2023/07/23 09:05:18;;;;;;;1.70;1.60;;;;;;;24.41;69.23;99589.50;5050747;28;20181;-69
2023/07/23 09:07:43;;;;;;;2.40;2.00;;;;;;;24.36;70.96;99586.63;5051665;28;21479;-69
2023/07/23 09:10:08;;;;;;;2.45;1.88;;;;;;;24.24;69.62;99587.09;5041768;28;20200;-69
2023/07/23 09:12:40;;;;;;;2.53;1.77;;;;;;;24.00;70.07;99588.22;5064788;28;20182;-69
2023/07/23 09:15:06;;;;;;;1.95;1.75;;;;;;;23.59;73.17;99593.94;5050686;28;20225;-69
2023/07/23 09:17:31;;;;;;;1.60;1.50;;;;;;;23.78;70.75;99589.97;5049845;28;20223;-69
2023/07/23 09:19:56;;;;;;;2.90;2.05;;;;;;;23.42;70.27;99603.78;5049684;28;20262;-69
2023/07/23 09:22:21;;;;;;;2.87;2.20;;;;;;;23.01;74.92;99599.75;5039712;28;20231;-69
2023/07/23 09:24:47;;;;;;;2.30;1.90;;;;;;;22.80;76.08;99592.50;5050864;28;20192;-69
2023/07/23 09:27:12;;;;;;;4.10;1.77;;;;;;;22.79;77.11;99596.16;5049960;28;20177;-69
2023/07/23 09:29:41;;;;;;;2.40;2.00;;;;;;;22.88;74.74;99589.84;5049837;28;20188;-69
2023/07/23 09:32:23;;;;;;;2.00;1.60;;;;;;;22.93;74.49;99591.94;5041878;28;20607;-69
2023/07/23 09:34:48;;;;;;;1.73;1.63;;;;;;;23.00;75.00;99587.63;5050426;28;20182;-69
2023/07/23 09:37:16;;;;;;;3.03;2.03;;;;;;;23.00;72.77;99592.88;5051317;28;20192;-70
2023/07/23 09:39:41;;;;;;;2.27;1.90;;;;;;;22.73;73.62;99590.59;5049467;28;20656;-70
2023/07/23 09:42:06;;;;;;;4.33;1.70;;;;;;;22.60;74.94;99586.94;5058224;28;20231;-69
2023/07/23 09:44:31;;;;;;;1.77;1.67;;;;;;;22.72;75.98;99594.22;5054624;28;21027;-70
2023/07/23 09:46:58;;;;;;;3.30;1.80;;;;;;;22.80;74.82;99589.88;5055052;28;20185;-70
2023/07/23 09:49:28;;;;;;;3.83;1.80;;;;;;;22.44;75.14;99583.44;5055115;28;20185;-69
2023/07/23 09:51:53;;;;;;;5.20;1.73;;;;;;;22.45;78.27;99586.88;5058438;28;20227;-69
2023/07/23 09:54:20;;;;;;;3.23;1.73;;;;;;;22.55;76.35;99577.78;5039170;28;20204;-69
2023/07/23 09:56:47;;;;;;;1.53;1.43;;;;;;;22.69;75.85;99570.97;5055082;28;20184;-69
2023/07/23 09:59:14;;;;;;;1.67;1.57;;;;;;;22.73;75.61;99571.44;5053471;28;20605;-69
2023/07/23 10:01:40;;;;;;;4.00;1.60;;;;;;;22.83;75.49;99569.38;5043875;28;20229;-69
2023/07/23 10:04:07;;;;;;;2.30;2.10;;;;;;;23.28;70.10;99571.31;5041463;28;20581;-69
2023/07/23 10:06:32;;;;;;;2.67;1.37;;;;;;;23.55;71.84;99579.56;5053104;28;20200;-69
2023/07/23 10:08:58;;;;;;;2.80;1.63;;;;;;;23.87;66.97;99574.94;5054747;28;20177;-68
2023/07/23 10:11:24;;;;;;;1.97;1.77;;;;;;;23.65;64.11;99586.19;5054607;28;20247;-70
2023/07/23 10:13:51;;;;;;;2.17;1.70;;;;;;;23.98;64.89;99585.78;5059437;28;20681;-69
2023/07/23 10:16:27;;;;;;;2.00;1.50;;;;;;;23.96;63.77;99582.53;5052150;28;20177;-70
2023/07/23 10:18:55;;;;;;;1.97;1.70;;;;;;;24.31;60.41;99580.09;5054723;28;20193;-70
2023/07/23 10:21:20;;;;;;;2.03;1.83;;;;;;;24.58;58.41;99587.44;5052338;28;20599;-70
2023/07/23 10:23:55;;;;;;;2.17;1.97;;;;;;;24.84;55.79;99576.38;5054059;28;20189;-69
2023/07/23 10:26:29;;;;;;;2.57;1.50;;;;;;;25.84;53.93;99578.84;5051983;28;20177;-70
2023/07/23 10:29:11;;;;;;;4.55;2.00;;;;;;;27.50;44.79;99573.13;5054547;28;20663;-70
2023/07/23 10:31:38;;;;;;;2.17;1.45;;;;;;;29.03;40.44;99573.25;5049587;28;20274;-69
2023/07/23 10:34:26;;;;;;;1.48;1.38;;;;;;;28.64;41.66;99568.06;5048946;28;20263;-69
2023/07/23 10:37:12;;;;;;;1.88;1.52;;;;;;;28.26;42.39;99579.53;5043807;28;20184;-70
2023/07/23 10:39:46;;;;;;;3.10;1.48;;;;;;;28.64;40.64;99567.25;5052787;28;20296;-70
2023/07/23 10:42:36;;;;;;;3.80;1.75;;;;;;;29.26;37.83;99569.16;5059450;28;20228;-69
2023/07/23 10:45:16;;;;;;;2.40;1.60;;;;;;;29.08;38.18;99570.78;5043929;28;20660;-69
2023/07/23 10:47:54;;;;;;;2.47;1.38;;;;;;;29.38;37.47;99564.78;5054080;28;20206;-69
2023/07/23 10:50:20;;;;;;;1.77;1.67;;;;;;;29.10;39.19;99562.59;5045320;28;20228;-69
2023/07/23 10:52:49;;;;;;;1.60;1.30;;;;;;;28.61;40.38;99549.97;5052847;28;20580;-69
2023/07/23 10:55:46;;;;;;;1.73;1.35;;;;;;;28.05;40.57;99543.66;5053298;28;20293;-69
2023/07/23 10:58:15;;;;;;;2.72;1.40;;;;;;;27.71;42.05;99537.72;5053961;28;20483;-69
2023/07/23 11:00:51;;;;;;;2.60;1.10;;;;;;;27.95;42.82;99535.34;5038010;28;20231;-69
2023/07/23 11:03:18;;;;;;;2.25;1.50;;;;;;;27.99;43.93;99539.19;5062257;28;20188;-69
2023/07/23 11:05:45;;;;;;;4.30;1.40;;;;;;;27.55;42.69;99539.00;5040350;28;20614;-70
2023/07/23 11:08:13;;;;;;;2.40;1.70;;;;;;;28.57;41.85;99524.97;5053548;28;20656;-70
2023/07/23 11:10:57;;;;;;;1.48;1.38;;;;;;;28.44;39.32;99544.44;5045085;28;20275;-69
2023/07/23 11:13:25;;;;;;;3.72;1.50;;;;;;;28.49;39.60;99523.44;5051781;28;20265;-69
2023/07/23 11:15:50;;;;;;;3.75;1.40;;;;;;;28.43;39.73;99531.41;5049163;28;20598;-69
2023/07/23 11:18:17;;;;;;;2.05;1.40;;;;;;;28.15;38.33;99524.69;5061923;28;20272;-69
2023/07/23 11:20:47;;;;;;;4.78;1.90;;;;;;;28.28;38.84;99527.25;5048279;28;20220;-69
2023/07/23 11:23:13;;;;;;;3.80;1.55;;;;;;;28.20;38.71;99529.34;5051817;28;20177;-69
2023/07/23 11:25:39;;;;;;;4.00;1.70;;;;;;;28.43;38.25;99518.16;5052771;28;20216;-68
2023/07/23 11:28:06;;;;;;;4.00;2.00;;;;;;;28.80;39.37;99524.41;5035343;28;20604;-69